Overview Statistics Trail Chart Weather Telemetry Raw packets
 

This is the latest recevied weather packets stored in our database for station/object OK2VOP-6. If no packets are shown the sender has not sent any weather packets the latest 10 day(s).

<< 21 22 23 24 25 26 27 >>
Time Temp. Humidity Pressure Rain* Wind** Luminosity Snow
1788021627 25° C 25% - 0 mm - - -
1788020422 26.67° C 18% - 0 mm - - -
1788019217 28.33° C 15% - 0 mm - - -
1788018013 28.33° C 17% - 0 mm - - -
1788016808 26.11° C 20% - 0 mm - - -
1788015603 27.22° C 15% - 0 mm - - -
1788014398 29.44° C 10% - 0 mm - - -
1788013193 28.89° C 15% - 0 mm - - -
1788011988 28.33° C 15% - 0 mm - - -
1788010783 28.89° C 13% - 0 mm - - -
1788009578 27.78° C 20% - 0 mm - - -
1788008373 27.78° C 19% - 0 mm - - -
1788007168 27.22° C 17% - 0 mm - - -
1788005964 26.67° C 21% - 0 mm - - -
1788004345 27.22° C 22% - 0 mm - - -
1788003129 26.67° C 26% - 0 mm - - -
1788001924 25° C 28% - 0 mm - - -
1788000718 24.44° C 32% - 0 mm - - -
1787999514 23.33° C 38% - 0 mm - - -
1787998309 23.89° C 42% - 0 mm - - -
1787997104 22.78° C 46% - 0 mm - - -
1787995899 21.67° C 52% - 0 mm - - -
1787993490 20.56° C 59% - 0 mm - - -
1787992285 19.44° C 65% - 0 mm - - -
1787991080 18.89° C 71% - 0 mm - - -

* Rain latest hour (hover to see other rain measurements)
** Current wind speed in m/s (hover to see current wind gust speed)